Praia, Cape Verde
Current Conditions -  °F | °C
As of 12:00 AM on Wednesday 22 Oct 2014 (Local Time) from GVNP Reporting Station
Few Clouds Few Clouds  
Wind Chill: 25°   Ceiling: Unl
Heat Index: 26°   Visibility: 6mi
Dew Point: 23°   Wind: 14mph
Humidity: 89%   Direction: 40°NE
Pressure: 30"   Gusts: NA
Location:  14.93°N, 23.54°W
Report Text: GVNP 220100Z 04012KT 9999 FEW019 25/23 Q1016 NOSIG
Loading
Personal Weather Stations






























Interactive Weather Map
Tropical Storm Tracking
New forecast layout! Learn more

10-Day Weather Forecast

Advertisements
Track Severe Weather on mobile